createdAt,value
2022-08-04T00:00:09.797Z,7.63
2022-08-04T00:02:51.034Z,8.27
2022-08-04T00:05:31.648Z,7.00
2022-08-04T00:08:08.042Z,7.07
2022-08-04T00:10:37.457Z,7.60
2022-08-04T00:13:06.460Z,7.40
2022-08-04T00:15:35.573Z,7.07
2022-08-04T00:18:06.518Z,7.03
2022-08-04T00:20:40.865Z,7.40
2022-08-04T00:23:09.705Z,7.17
2022-08-04T00:25:41.439Z,6.97
2022-08-04T00:28:10.197Z,7.60
2022-08-04T00:30:38.770Z,7.10
2022-08-04T00:33:07.932Z,6.90
2022-08-04T00:35:39.438Z,6.40
2022-08-04T00:38:07.506Z,6.30
2022-08-04T00:40:45.943Z,6.90
2022-08-04T00:43:20.532Z,7.17
2022-08-04T00:46:18.559Z,7.80
2022-08-04T00:49:02.349Z,7.10
2022-08-04T00:52:31.548Z,7.27
2022-08-04T00:54:48.996Z,7.20
2022-08-04T00:57:37.577Z,7.50
2022-08-04T01:00:10.842Z,7.40
2022-08-04T01:02:50.682Z,6.50
2022-08-04T01:05:28.990Z,6.43
2022-08-04T01:08:38.812Z,6.60
2022-08-04T01:11:28.423Z,7.10
2022-08-04T01:14:19.908Z,7.07
2022-08-04T01:16:50.959Z,6.73
2022-08-04T01:19:43.078Z,6.50
2022-08-04T01:22:39.669Z,7.10
2022-08-04T01:25:46.258Z,6.90
2022-08-04T01:28:29.964Z,6.83
2022-08-04T01:31:13.080Z,6.63
2022-08-04T01:34:03.258Z,7.43
2022-08-04T01:36:34.999Z,6.20
2022-08-04T01:39:24.936Z,6.60
2022-08-04T01:41:58.216Z,5.90
2022-08-04T01:44:29.456Z,6.90
2022-08-04T01:47:01.518Z,7.10
2022-08-04T01:49:32.224Z,7.30
2022-08-04T01:52:11.609Z,7.43
2022-08-04T01:54:42.801Z,6.80
2022-08-04T01:57:38.806Z,6.50
2022-08-04T02:00:00.683Z,7.10
2022-08-04T02:02:30.361Z,6.43
2022-08-04T02:04:58.345Z,7.70
2022-08-04T02:07:41.672Z,6.80
2022-08-04T02:10:23.028Z,7.43
2022-08-04T02:12:57.341Z,6.90
2022-08-04T02:15:29.942Z,7.60
2022-08-04T02:18:04.499Z,6.90
2022-08-04T02:20:36.533Z,6.90
2022-08-04T02:23:07.125Z,7.37
2022-08-04T02:25:40.495Z,7.33
2022-08-04T02:28:24.046Z,7.27
2022-08-04T02:31:03.972Z,6.97
2022-08-04T02:33:38.922Z,7.10
2022-08-04T02:36:10.532Z,6.53
2022-08-04T02:38:56.932Z,6.13
2022-08-04T02:41:27.186Z,6.40
2022-08-04T02:43:58.265Z,6.93
2022-08-04T02:46:26.675Z,6.20
2022-08-04T02:48:56.793Z,6.77
2022-08-04T02:51:28.391Z,19.23
2022-08-04T02:53:58.079Z,10.50
2022-08-04T02:56:29.161Z,24.40
2022-08-04T02:59:01.421Z,8.30
2022-08-04T03:01:29.874Z,7.47
2022-08-04T03:04:13.397Z,7.47
2022-08-04T03:07:25.142Z,7.93
2022-08-04T03:10:21.620Z,6.50
2022-08-04T03:13:19.924Z,7.37
2022-08-04T03:16:14.067Z,6.90
2022-08-04T03:19:02.913Z,7.10
2022-08-04T03:22:08.018Z,7.27
2022-08-04T03:25:10.810Z,7.80
2022-08-04T03:28:36.043Z,6.57
2022-08-04T03:31:26.645Z,7.40
2022-08-04T03:34:10.147Z,7.23
2022-08-04T03:37:09.968Z,7.40
2022-08-04T03:40:26.841Z,7.70
2022-08-04T03:43:59.081Z,7.10
2022-08-04T03:46:53.606Z,7.53
2022-08-04T03:49:59.640Z,8.20
2022-08-04T03:53:11.934Z,7.70
2022-08-04T03:56:12.135Z,7.33
2022-08-04T03:59:01.259Z,6.73
2022-08-04T04:02:02.525Z,6.90
2022-08-04T04:04:55.167Z,7.53
2022-08-04T04:08:01.865Z,8.03
2022-08-04T04:10:48.129Z,6.80
2022-08-04T04:13:48.211Z,6.90
2022-08-04T04:16:35.520Z,7.83
2022-08-04T04:19:29.413Z,7.67
2022-08-04T04:22:09.033Z,7.30
2022-08-04T04:24:55.829Z,7.43
2022-08-04T04:27:35.730Z,7.30
2022-08-04T04:30:09.837Z,7.70
2022-08-04T04:33:02.450Z,7.23
2022-08-04T04:35:42.439Z,7.37
2022-08-04T04:38:41.924Z,8.90
2022-08-04T04:41:27.981Z,7.17
2022-08-04T04:44:15.943Z,7.47
2022-08-04T04:46:49.754Z,7.43
2022-08-04T04:49:26.742Z,8.00
2022-08-04T04:52:01.487Z,8.10
2022-08-04T04:54:35.403Z,7.60
2022-08-04T04:57:10.906Z,8.30
2022-08-04T04:59:50.185Z,7.70
2022-08-04T05:02:45.110Z,8.40
2022-08-04T05:05:34.719Z,8.67
2022-08-04T05:08:43.286Z,8.63
2022-08-04T05:11:27.066Z,7.93
2022-08-04T05:14:36.437Z,8.27
2022-08-04T05:16:52.349Z,8.13
2022-08-04T05:19:26.808Z,8.20
2022-08-04T05:22:02.429Z,7.77
2022-08-04T05:24:37.449Z,7.67
2022-08-04T05:27:16.127Z,8.27
2022-08-04T05:29:51.035Z,7.53
2022-08-04T05:32:24.152Z,8.13
2022-08-04T05:35:00.023Z,8.70
2022-08-04T05:37:30.339Z,9.03
2022-08-04T05:40:03.576Z,8.30
2022-08-04T05:42:32.866Z,8.70
2022-08-04T05:45:01.332Z,8.90
2022-08-04T05:47:30.527Z,9.03
2022-08-04T05:50:02.155Z,9.17
2022-08-04T05:52:33.395Z,8.83
2022-08-04T05:55:03.717Z,8.50
2022-08-04T05:57:32.741Z,9.50
2022-08-04T06:00:19.738Z,8.50
2022-08-04T06:02:54.933Z,8.70
2022-08-04T06:05:24.378Z,11.20
2022-08-04T06:08:12.821Z,13.53
2022-08-04T06:10:43.627Z,13.73
2022-08-04T06:13:48.959Z,10.93
2022-08-04T06:16:03.962Z,11.10
2022-08-04T06:19:59.234Z,9.63
2022-08-04T06:21:25.673Z,8.87
2022-08-04T06:24:02.388Z,8.67
2022-08-04T06:26:35.847Z,8.50
2022-08-04T06:29:05.497Z,8.80
2022-08-04T06:32:28.435Z,8.93
2022-08-04T06:34:36.722Z,9.13
2022-08-04T06:37:05.334Z,9.00
2022-08-04T06:39:34.985Z,10.53
2022-08-04T06:42:21.760Z,9.27
2022-08-04T06:44:55.267Z,9.50
2022-08-04T06:47:24.284Z,13.30
2022-08-04T06:51:31.899Z,9.60
2022-08-04T06:52:45.699Z,11.97
2022-08-04T06:55:14.472Z,9.07
2022-08-04T06:57:45.551Z,8.80
2022-08-04T07:00:15.400Z,11.80
2022-08-04T07:02:47.269Z,10.47
2022-08-04T07:05:16.399Z,14.03
2022-08-04T07:07:56.937Z,14.70
2022-08-04T07:10:28.417Z,14.10
2022-08-04T07:12:58.865Z,12.90
2022-08-04T07:15:28.202Z,11.23
2022-08-04T07:18:00.213Z,12.33
2022-08-04T07:20:35.218Z,9.80
2022-08-04T07:23:05.273Z,10.23
2022-08-04T07:25:57.237Z,10.03
2022-08-04T07:28:26.861Z,8.77
2022-08-04T07:30:55.701Z,19.20
2022-08-04T07:33:24.728Z,9.50
2022-08-04T07:36:08.381Z,10.17
2022-08-04T07:38:46.618Z,10.40
2022-08-04T07:41:39.341Z,8.97
2022-08-04T07:44:09.975Z,11.20
2022-08-04T07:46:38.246Z,9.20
2022-08-04T07:49:07.405Z,8.20
2022-08-04T07:51:37.719Z,7.90
2022-08-04T07:54:07.788Z,6.73
2022-08-04T07:56:37.937Z,7.03
2022-08-04T07:59:06.623Z,7.60
2022-08-04T08:01:37.394Z,8.80
2022-08-04T08:04:08.014Z,9.73
2022-08-04T08:06:42.703Z,6.33
2022-08-04T08:09:14.842Z,6.03
2022-08-04T08:12:37.864Z,6.10
2022-08-04T08:14:33.321Z,6.87
2022-08-04T08:17:03.063Z,6.70
2022-08-04T08:19:31.485Z,6.60
2022-08-04T08:22:01.425Z,6.30
2022-08-04T08:24:30.706Z,5.70
2022-08-04T08:27:00.104Z,5.80
2022-08-04T08:29:29.931Z,5.17
2022-08-04T08:32:02.629Z,6.10
2022-08-04T08:34:34.920Z,6.17
2022-08-04T08:37:10.793Z,6.20
2022-08-04T08:39:42.493Z,5.70
2022-08-04T08:42:35.904Z,6.83
2022-08-04T08:45:29.538Z,6.07
2022-08-04T08:48:15.170Z,6.00
2022-08-04T08:51:03.994Z,6.23
2022-08-04T08:53:49.132Z,5.13
2022-08-04T08:56:30.936Z,5.30
2022-08-04T08:59:25.632Z,5.33
2022-08-04T09:02:28.146Z,5.60
2022-08-04T09:05:09.410Z,5.40
2022-08-04T09:08:12.070Z,5.63
2022-08-04T09:10:44.888Z,5.30
2022-08-04T09:13:21.240Z,5.60
2022-08-04T09:15:58.304Z,7.00
2022-08-04T09:18:33.797Z,6.13
2022-08-04T09:21:07.666Z,5.40
2022-08-04T09:23:47.785Z,5.50
2022-08-04T09:26:21.650Z,5.27
2022-08-04T09:28:55.720Z,5.13
2022-08-04T09:31:30.171Z,4.90
2022-08-04T09:34:28.206Z,4.80
2022-08-04T09:37:05.681Z,4.93
2022-08-04T09:39:52.112Z,4.83
2022-08-04T09:42:30.254Z,4.50
2022-08-04T09:45:06.466Z,4.90
2022-08-04T09:47:40.702Z,4.50
2022-08-04T09:50:27.838Z,4.17
2022-08-04T09:53:04.121Z,4.37
2022-08-04T09:55:57.930Z,4.93
2022-08-04T09:58:51.056Z,4.90
2022-08-04T10:01:23.713Z,4.23
2022-08-04T10:03:56.072Z,4.17
2022-08-04T10:06:47.229Z,4.13
2022-08-04T10:09:29.628Z,4.50
2022-08-04T10:12:14.041Z,4.80
2022-08-04T10:14:52.778Z,4.40
2022-08-04T10:17:59.997Z,4.43
2022-08-04T10:20:57.371Z,4.03
2022-08-04T10:23:55.931Z,4.30
2022-08-04T10:26:32.510Z,4.30
2022-08-04T10:29:06.907Z,4.07
2022-08-04T10:31:40.541Z,4.57
2022-08-04T10:34:13.529Z,4.10
2022-08-04T10:36:49.879Z,4.17
2022-08-04T10:39:43.183Z,4.33
2022-08-04T10:42:22.753Z,4.87
2022-08-04T10:45:07.771Z,4.17
2022-08-04T10:47:43.745Z,4.07
2022-08-04T10:50:14.392Z,5.03
2022-08-04T10:52:47.469Z,4.83
2022-08-04T10:55:20.148Z,4.80
2022-08-04T10:57:52.667Z,4.20
2022-08-04T11:00:26.425Z,4.37
2022-08-04T11:02:59.763Z,4.73
2022-08-04T11:05:32.825Z,4.47
2022-08-04T11:08:20.813Z,4.80
2022-08-04T11:10:55.849Z,4.40
2022-08-04T11:13:29.949Z,4.30
2022-08-04T11:16:05.193Z,4.13
2022-08-04T11:18:47.616Z,4.73
2022-08-04T11:21:27.062Z,5.60
2022-08-04T11:24:03.077Z,5.90
2022-08-04T11:26:42.884Z,5.73
2022-08-04T11:29:21.846Z,4.40
2022-08-04T11:31:52.036Z,3.93
2022-08-04T11:34:22.140Z,4.03
2022-08-04T11:36:56.746Z,4.83
2022-08-04T11:39:30.687Z,4.03
2022-08-04T11:42:11.455Z,4.30
2022-08-04T11:44:44.567Z,4.80
2022-08-04T11:47:23.245Z,4.83
2022-08-04T11:49:58.246Z,4.00
2022-08-04T11:52:28.198Z,4.10
2022-08-04T11:54:57.909Z,4.10
2022-08-04T11:57:35.978Z,3.90
2022-08-04T12:00:11.411Z,4.43
2022-08-04T12:02:59.837Z,3.83
2022-08-04T12:05:36.835Z,3.70
2022-08-04T12:08:22.989Z,3.87
2022-08-04T12:11:02.211Z,4.10
2022-08-04T12:13:37.482Z,4.20
2022-08-04T12:16:14.835Z,3.80
2022-08-04T12:18:52.606Z,4.07
2022-08-04T12:21:29.076Z,3.53
2022-08-04T12:24:02.654Z,4.20
2022-08-04T12:26:38.201Z,3.77
2022-08-04T12:29:10.833Z,3.90
2022-08-04T12:31:46.389Z,3.93
2022-08-04T12:34:18.901Z,3.83
2022-08-04T12:36:55.701Z,3.80
2022-08-04T12:39:26.302Z,4.33
2022-08-04T12:42:04.748Z,4.00
2022-08-04T12:44:38.270Z,3.90
2022-08-04T12:47:26.835Z,3.90
2022-08-04T12:50:02.860Z,3.93
2022-08-04T12:52:59.090Z,3.80
2022-08-04T12:55:25.294Z,4.20
2022-08-04T12:57:54.698Z,3.93
2022-08-04T13:00:30.511Z,3.33
2022-08-04T13:03:10.192Z,4.03
2022-08-04T13:05:41.838Z,3.80
2022-08-04T13:08:11.511Z,4.20
2022-08-04T13:10:42.371Z,3.47
2022-08-04T13:13:17.318Z,3.53
2022-08-04T13:15:56.939Z,6.20
2022-08-04T13:18:30.152Z,3.73
2022-08-04T13:21:22.702Z,4.07
2022-08-04T13:24:19.032Z,3.90
2022-08-04T13:26:56.762Z,4.03
2022-08-04T13:30:00.043Z,3.70
2022-08-04T13:32:18.438Z,4.27
2022-08-04T13:34:56.169Z,4.90
2022-08-04T13:37:38.268Z,4.00
2022-08-04T13:40:35.163Z,4.07
2022-08-04T13:44:16.266Z,4.97
2022-08-04T13:46:36.093Z,4.10
2022-08-04T13:49:43.154Z,5.13
2022-08-04T13:52:20.182Z,3.80
2022-08-04T13:54:54.935Z,4.63
2022-08-04T13:57:33.960Z,4.10
2022-08-04T14:00:10.978Z,4.30
2022-08-04T14:02:46.518Z,5.60
2022-08-04T14:05:59.520Z,5.60
2022-08-04T14:08:31.643Z,5.50
2022-08-04T14:11:04.003Z,3.90
2022-08-04T14:13:41.459Z,3.70
2022-08-04T14:16:18.027Z,6.80
2022-08-04T14:18:47.114Z,9.60
2022-08-04T14:21:16.299Z,6.10
2022-08-04T14:23:48.338Z,7.23
2022-08-04T14:26:32.796Z,5.00
2022-08-04T14:29:28.325Z,4.23
2022-08-04T14:32:10.523Z,3.97
2022-08-04T14:34:42.323Z,4.00
2022-08-04T14:37:19.320Z,5.47
2022-08-04T14:40:18.909Z,5.30
2022-08-04T14:42:43.519Z,4.07
2022-08-04T14:45:12.097Z,4.30
2022-08-04T14:47:41.991Z,3.40
2022-08-04T14:50:33.695Z,3.67
2022-08-04T14:53:05.291Z,4.40
2022-08-04T14:55:33.352Z,4.43
2022-08-04T14:58:36.167Z,21.03
2022-08-04T15:00:53.177Z,8.03
2022-08-04T15:03:22.747Z,5.60
2022-08-04T15:05:55.577Z,6.60
2022-08-04T15:08:32.754Z,5.70
2022-08-04T15:11:02.901Z,7.77
2022-08-04T15:13:33.831Z,3.90
2022-08-04T15:16:07.236Z,3.53
2022-08-04T15:18:38.881Z,3.43
2022-08-04T15:21:07.843Z,3.77
2022-08-04T15:23:39.695Z,2.90
2022-08-04T15:26:13.443Z,3.47
2022-08-04T15:28:48.216Z,4.70
2022-08-04T15:32:06.695Z,6.20
2022-08-04T15:34:07.744Z,5.57
2022-08-04T15:36:56.930Z,5.05
2022-08-04T15:39:36.871Z,3.93
2022-08-04T15:42:21.292Z,4.20
2022-08-04T15:45:13.399Z,4.00
2022-08-04T15:47:41.885Z,3.63
2022-08-04T15:50:28.183Z,3.73
2022-08-04T15:53:10.383Z,4.22
2022-08-04T15:55:43.192Z,3.78
2022-08-04T15:58:14.695Z,3.85
2022-08-04T16:01:18.596Z,3.40
2022-08-04T16:03:58.717Z,3.50
2022-08-04T16:07:07.945Z,3.53
2022-08-04T16:09:45.269Z,3.53
2022-08-04T16:12:54.542Z,3.63
2022-08-04T16:15:42.719Z,3.85
2022-08-04T16:18:25.410Z,3.40
2022-08-04T16:20:57.306Z,4.13
2022-08-04T16:24:00.772Z,3.80
2022-08-04T16:26:54.694Z,5.55
2022-08-04T16:29:29.684Z,3.55
2022-08-04T16:32:18.386Z,45.85
2022-08-04T16:35:18.659Z,40.03
2022-08-04T16:37:46.888Z,48.20
2022-08-04T16:40:35.725Z,7.18
2022-08-04T16:43:09.655Z,4.70
2022-08-04T16:45:44.756Z,4.22
2022-08-04T16:48:13.763Z,4.10
2022-08-04T16:50:52.292Z,3.90
2022-08-04T16:53:53.106Z,4.30
2022-08-04T16:56:11.201Z,3.60
2022-08-04T16:58:53.686Z,3.72
2022-08-04T17:01:32.533Z,3.30
2022-08-04T17:04:06.057Z,5.17
2022-08-04T17:06:37.749Z,3.97
2022-08-04T17:09:07.634Z,3.67
2022-08-04T17:11:36.842Z,3.75
2022-08-04T17:14:06.523Z,3.70
2022-08-04T17:16:37.833Z,3.78
2022-08-04T17:19:19.792Z,4.00
2022-08-04T17:22:00.379Z,3.97
2022-08-04T17:24:30.718Z,5.13
2022-08-04T17:26:59.706Z,8.25
2022-08-04T17:29:43.887Z,5.00
2022-08-04T17:32:18.625Z,3.57
2022-08-04T17:34:50.287Z,7.20
2022-08-04T17:37:39.102Z,5.53
2022-08-04T17:40:12.060Z,3.93
2022-08-04T17:42:41.703Z,4.60
2022-08-04T17:48:03.599Z,5.37
2022-08-04T17:50:35.770Z,7.40
2022-08-04T17:53:11.826Z,7.20
2022-08-04T17:55:42.630Z,6.33
2022-08-04T17:58:21.413Z,4.70
2022-08-04T18:01:22.700Z,6.80
2022-08-04T18:03:53.084Z,6.10
2022-08-04T18:06:25.777Z,5.60
2022-08-04T18:08:59.358Z,4.90
2022-08-04T18:11:54.131Z,5.03
2022-08-04T18:14:25.948Z,5.70
2022-08-04T18:16:57.250Z,4.60
2022-08-04T18:19:25.252Z,4.70
2022-08-04T18:21:59.829Z,4.03
2022-08-04T18:24:35.682Z,5.40
2022-08-04T18:27:23.682Z,4.90
2022-08-04T18:30:33.290Z,4.30
2022-08-04T18:33:04.229Z,5.60
2022-08-04T18:36:31.284Z,29.37
2022-08-04T18:38:24.001Z,16.90
2022-08-04T18:40:55.284Z,12.20
2022-08-04T18:43:27.878Z,7.47
2022-08-04T18:45:59.493Z,5.37
2022-08-04T18:48:35.891Z,5.80
2022-08-04T18:51:22.586Z,5.10
2022-08-04T18:53:55.137Z,11.50
2022-08-04T18:56:29.294Z,10.70
2022-08-04T18:59:00.162Z,5.90
2022-08-04T19:01:29.626Z,5.17
2022-08-04T19:04:33.814Z,5.10
2022-08-04T19:07:28.698Z,5.60
2022-08-04T19:09:57.302Z,5.60
2022-08-04T19:12:28.518Z,6.00
2022-08-04T19:14:58.128Z,4.97
2022-08-04T19:17:53.674Z,6.03
2022-08-04T19:20:24.179Z,5.97
2022-08-04T19:24:26.848Z,5.07
2022-08-04T19:26:01.438Z,5.10
2022-08-04T19:28:31.828Z,5.07
2022-08-04T19:31:02.596Z,7.40
2022-08-04T19:33:59.210Z,6.10
2022-08-04T19:36:18.625Z,6.37
2022-08-04T19:38:46.973Z,6.03
2022-08-04T19:41:16.697Z,5.90
2022-08-04T19:43:47.765Z,5.50
2022-08-04T19:46:17.745Z,6.37
2022-08-04T19:48:59.217Z,7.03
2022-08-04T19:51:30.343Z,7.00
2022-08-04T19:54:03.782Z,6.50
2022-08-04T19:56:48.690Z,6.00
2022-08-04T19:59:18.032Z,5.70
2022-08-04T20:01:46.273Z,5.93
2022-08-04T20:04:15.036Z,6.57
2022-08-04T20:06:43.817Z,5.93
2022-08-04T20:09:24.951Z,6.60
2022-08-04T20:11:55.597Z,10.67
2022-08-04T20:17:13.437Z,11.40
2022-08-04T20:19:51.058Z,11.97
2022-08-04T20:22:50.779Z,11.47
2022-08-04T20:25:36.109Z,9.40
2022-08-04T20:28:00.517Z,8.03
2022-08-04T20:30:31.364Z,6.53
2022-08-04T20:33:01.076Z,6.70
2022-08-04T20:35:29.422Z,5.60
2022-08-04T20:38:00.645Z,5.80
2022-08-04T20:40:29.987Z,6.07
2022-08-04T20:42:58.159Z,5.97
2022-08-04T20:45:31.811Z,5.90
2022-08-04T20:48:15.697Z,6.57
2022-08-04T20:50:46.130Z,6.53
2022-08-04T20:53:16.795Z,5.63
2022-08-04T20:55:55.629Z,6.00
2022-08-04T20:58:27.582Z,5.90
2022-08-04T21:00:56.924Z,6.30
2022-08-04T21:03:49.938Z,5.07
2022-08-04T21:06:15.915Z,6.13
2022-08-04T21:08:43.982Z,8.00
2022-08-04T21:11:32.605Z,7.40
2022-08-04T21:14:01.707Z,8.60
2022-08-04T21:16:53.710Z,7.83
2022-08-04T21:19:22.550Z,6.10
2022-08-04T21:21:53.301Z,6.77
2022-08-04T21:24:26.017Z,7.10
2022-08-04T21:26:56.557Z,7.20
2022-08-04T21:29:34.670Z,5.90
2022-08-04T21:32:04.609Z,6.07
2022-08-04T21:34:39.218Z,5.40
2022-08-04T21:37:09.165Z,5.80
2022-08-04T21:39:50.663Z,5.60
2022-08-04T21:42:28.754Z,5.50
2022-08-04T21:44:58.634Z,5.57
2022-08-04T21:47:26.606Z,6.17
2022-08-04T21:50:19.878Z,5.93
2022-08-04T21:52:48.959Z,4.90
2022-08-04T21:55:17.196Z,6.10
2022-08-04T21:57:47.108Z,6.70
2022-08-04T22:00:19.668Z,6.90
2022-08-04T22:02:53.380Z,6.60
2022-08-04T22:05:23.492Z,6.50
2022-08-04T22:07:52.150Z,5.63
2022-08-04T22:10:32.056Z,5.30
2022-08-04T22:13:06.730Z,5.60
2022-08-04T22:16:04.234Z,7.67
2022-08-04T22:18:24.613Z,11.97
2022-08-04T22:20:57.089Z,11.30
2022-08-04T22:23:26.271Z,5.77
2022-08-04T22:25:56.150Z,5.93
2022-08-04T22:28:28.140Z,5.50
2022-08-04T22:30:57.333Z,6.60
2022-08-04T22:33:54.047Z,5.93
2022-08-04T22:36:16.945Z,5.40
2022-08-04T22:38:50.053Z,5.70
2022-08-04T22:41:21.601Z,5.73
2022-08-04T22:44:02.123Z,5.33
2022-08-04T22:46:31.099Z,5.77
2022-08-04T22:48:59.144Z,6.40
2022-08-04T22:51:28.690Z,5.67
2022-08-04T22:53:58.038Z,5.50
2022-08-04T22:56:38.640Z,5.90
2022-08-04T22:59:10.162Z,4.90
2022-08-04T23:02:00.680Z,5.50
2022-08-04T23:04:30.112Z,5.10
2022-08-04T23:07:00.159Z,5.27
2022-08-04T23:09:50.758Z,5.00
2022-08-04T23:12:26.441Z,5.23
2022-08-04T23:14:55.147Z,5.53
2022-08-04T23:17:23.311Z,5.87
2022-08-04T23:19:57.974Z,5.40
2022-08-04T23:22:41.481Z,4.97
2022-08-04T23:25:15.426Z,5.17
2022-08-04T23:27:50.614Z,6.53
2022-08-04T23:30:21.717Z,9.00
2022-08-04T23:32:53.615Z,8.57
2022-08-04T23:35:22.402Z,7.70
2022-08-04T23:37:56.517Z,7.87
2022-08-04T23:40:33.415Z,7.20
2022-08-04T23:43:17.545Z,5.53
2022-08-04T23:46:04.185Z,6.03
2022-08-04T23:48:34.975Z,6.00
2022-08-04T23:51:14.040Z,7.10
2022-08-04T23:54:03.327Z,6.63
2022-08-04T23:56:34.169Z,5.47
2022-08-04T23:59:03.677Z,6.07
